createdAt,value
2017-10-03T00:01:48.283Z,14.19
2017-10-03T00:04:15.885Z,14.16
2017-10-03T00:06:43.564Z,14.14
2017-10-03T00:09:11.473Z,14.10
2017-10-03T00:11:39.393Z,14.10
2017-10-03T00:14:07.053Z,14.11
2017-10-03T00:16:34.648Z,14.08
2017-10-03T00:19:02.260Z,14.05
2017-10-03T00:21:29.887Z,14.05
2017-10-03T00:23:57.480Z,14.02
2017-10-03T00:26:25.066Z,14.01
2017-10-03T00:28:52.701Z,13.94
2017-10-03T00:31:20.275Z,13.93
2017-10-03T00:33:47.876Z,13.95
2017-10-03T00:36:15.495Z,13.92
2017-10-03T00:38:43.096Z,13.95
2017-10-03T00:41:10.679Z,13.93
2017-10-03T00:43:38.311Z,13.92
2017-10-03T00:46:05.943Z,13.90
2017-10-03T00:48:33.792Z,13.86
2017-10-03T00:51:01.750Z,13.84
2017-10-03T00:53:29.345Z,13.82
2017-10-03T00:55:57.308Z,13.72
2017-10-03T00:58:25.249Z,13.74
2017-10-03T01:00:52.827Z,13.71
2017-10-03T01:03:20.435Z,13.76
2017-10-03T01:05:48.056Z,13.70
2017-10-03T01:08:15.643Z,13.65
2017-10-03T01:10:43.471Z,13.66
2017-10-03T01:13:11.099Z,13.67
2017-10-03T01:15:38.993Z,13.69
2017-10-03T01:18:06.595Z,13.70
2017-10-03T01:20:34.232Z,13.66
2017-10-03T01:23:01.865Z,13.65
2017-10-03T01:25:29.460Z,13.61
2017-10-03T01:27:57.093Z,13.65
2017-10-03T01:30:24.681Z,13.55
2017-10-03T01:32:52.281Z,13.54
2017-10-03T01:35:20.192Z,13.53
2017-10-03T01:37:59.564Z,13.53
2017-10-03T01:40:27.204Z,13.45
2017-10-03T01:42:54.802Z,13.46
2017-10-03T01:45:22.390Z,13.42
2017-10-03T01:47:50.011Z,13.44
2017-10-03T01:50:17.615Z,13.44
2017-10-03T01:52:45.516Z,13.46
2017-10-03T01:55:13.132Z,13.44
2017-10-03T01:57:40.744Z,13.42
2017-10-03T02:00:08.337Z,13.42
2017-10-03T02:02:35.955Z,13.42
2017-10-03T02:05:03.555Z,13.42
2017-10-03T02:07:31.142Z,13.39
2017-10-03T02:09:58.772Z,13.38
2017-10-03T02:12:26.353Z,13.41
2017-10-03T02:14:53.938Z,13.34
2017-10-03T02:17:21.633Z,13.36
2017-10-03T02:19:49.230Z,13.19
2017-10-03T02:22:16.812Z,13.25
2017-10-03T02:24:44.431Z,13.29
2017-10-03T02:27:12.026Z,13.28
2017-10-03T02:29:39.619Z,13.30
2017-10-03T02:32:07.245Z,13.24
2017-10-03T02:34:34.832Z,13.25
2017-10-03T02:37:02.427Z,13.19
2017-10-03T02:39:30.048Z,13.19
2017-10-03T02:41:57.957Z,13.22
2017-10-03T02:44:25.541Z,13.23
2017-10-03T02:46:53.171Z,13.15
2017-10-03T02:49:20.783Z,13.18
2017-10-03T02:51:48.708Z,13.12
2017-10-03T02:54:16.576Z,13.15
2017-10-03T02:56:44.183Z,13.11
2017-10-03T02:59:11.760Z,13.08
2017-10-03T03:01:39.669Z,13.13
2017-10-03T03:04:07.260Z,13.16
2017-10-03T03:06:34.834Z,13.12
2017-10-03T03:09:02.456Z,13.18
2017-10-03T03:11:30.044Z,13.18
2017-10-03T03:13:57.666Z,13.15
2017-10-03T03:16:25.287Z,13.11
2017-10-03T03:18:52.870Z,13.10
2017-10-03T03:21:20.444Z,13.10
2017-10-03T03:23:48.084Z,13.10
2017-10-03T03:26:15.664Z,13.13
2017-10-03T03:28:43.258Z,13.10
2017-10-03T03:31:10.896Z,13.07
2017-10-03T03:33:38.781Z,13.11
2017-10-03T03:36:06.644Z,13.00
2017-10-03T03:38:34.260Z,13.00
2017-10-03T03:41:01.854Z,13.01
2017-10-03T03:43:29.435Z,13.00
2017-10-03T03:45:57.401Z,13.03
2017-10-03T03:48:24.985Z,13.04
2017-10-03T03:50:52.569Z,13.04
2017-10-03T03:53:20.185Z,13.02
2017-10-03T03:55:48.035Z,13.05
2017-10-03T03:58:15.624Z,12.94
2017-10-03T04:00:43.581Z,12.99
2017-10-03T04:03:11.180Z,12.99
2017-10-03T04:05:38.777Z,12.90
2017-10-03T04:08:06.672Z,12.96
2017-10-03T04:10:34.267Z,12.95
2017-10-03T04:13:02.098Z,12.93
2017-10-03T04:15:29.723Z,12.92
2017-10-03T04:17:57.304Z,12.87
2017-10-03T04:20:24.880Z,12.90
2017-10-03T04:22:52.508Z,12.92
2017-10-03T04:25:20.131Z,12.86
2017-10-03T04:27:47.729Z,12.83
2017-10-03T04:30:15.372Z,12.80
2017-10-03T04:32:42.957Z,12.86
2017-10-03T04:35:10.551Z,12.89
2017-10-03T04:37:38.174Z,12.89
2017-10-03T04:40:05.777Z,12.85
2017-10-03T04:42:33.364Z,12.81
2017-10-03T04:45:00.990Z,12.84
2017-10-03T04:47:28.998Z,12.84
2017-10-03T04:49:56.574Z,12.82
2017-10-03T04:52:24.213Z,12.86
2017-10-03T04:54:52.069Z,12.87
2017-10-03T04:57:19.661Z,12.84
2017-10-03T04:59:47.288Z,12.92
2017-10-03T05:02:14.890Z,12.95
2017-10-03T05:04:42.471Z,12.95
2017-10-03T05:07:10.387Z,12.96
2017-10-03T05:09:37.968Z,12.90
2017-10-03T05:12:05.548Z,12.93
2017-10-03T05:14:33.179Z,12.96
2017-10-03T05:17:00.760Z,12.93
2017-10-03T05:19:28.341Z,12.89
2017-10-03T05:21:55.967Z,12.93
2017-10-03T05:24:23.552Z,12.92
2017-10-03T05:26:51.146Z,12.90
2017-10-03T05:29:18.803Z,12.83
2017-10-03T05:31:46.381Z,12.86
2017-10-03T05:34:13.976Z,12.87
2017-10-03T05:36:41.606Z,12.83
2017-10-03T05:39:09.192Z,12.88
2017-10-03T05:41:36.771Z,12.87
2017-10-03T05:44:04.407Z,12.90
2017-10-03T05:46:31.983Z,12.79
2017-10-03T05:48:59.575Z,12.87
2017-10-03T05:51:27.208Z,12.85
2017-10-03T05:53:54.794Z,12.86
2017-10-03T05:56:22.375Z,12.86
2017-10-03T05:58:50.008Z,12.86
2017-10-03T06:01:17.592Z,12.88
2017-10-03T06:03:45.509Z,12.95
2017-10-03T06:06:13.478Z,12.96
2017-10-03T06:08:41.061Z,12.98
2017-10-03T06:11:08.639Z,12.96
2017-10-03T06:13:36.281Z,12.95
2017-10-03T06:16:03.962Z,13.04
2017-10-03T06:18:31.541Z,13.01
2017-10-03T06:20:59.181Z,12.96
2017-10-03T06:23:26.789Z,13.07
2017-10-03T06:25:54.408Z,13.05
2017-10-03T06:28:22.058Z,13.07
2017-10-03T06:30:49.647Z,13.06
2017-10-03T06:33:17.267Z,13.10
2017-10-03T06:35:45.048Z,13.16
2017-10-03T06:38:12.731Z,13.15
2017-10-03T06:40:40.364Z,13.04
2017-10-03T06:43:11.295Z,13.01
2017-10-03T06:45:38.976Z,12.98
2017-10-03T06:48:06.825Z,12.92
2017-10-03T06:50:34.495Z,12.96
2017-10-03T06:53:02.156Z,12.93
2017-10-03T06:55:29.765Z,12.93
2017-10-03T06:57:57.429Z,12.99
2017-10-03T07:00:25.026Z,13.03
2017-10-03T07:02:52.619Z,13.15
2017-10-03T07:05:20.236Z,13.12
2017-10-03T07:07:47.832Z,13.23
2017-10-03T07:10:15.693Z,13.32
2017-10-03T07:12:43.330Z,13.33
2017-10-03T07:15:10.916Z,13.32
2017-10-03T07:17:38.506Z,13.37
2017-10-03T07:20:06.143Z,13.33
2017-10-03T07:22:33.737Z,13.40
2017-10-03T07:25:01.368Z,13.29
2017-10-03T07:27:29.029Z,13.37
2017-10-03T07:29:56.620Z,13.34
2017-10-03T07:32:24.206Z,13.33
2017-10-03T07:34:52.117Z,13.37
2017-10-03T07:37:19.977Z,13.26
2017-10-03T07:39:47.571Z,13.21
2017-10-03T07:42:15.218Z,13.32
2017-10-03T07:44:43.176Z,13.46
2017-10-03T07:47:10.768Z,13.58
2017-10-03T07:49:38.400Z,13.51
2017-10-03T07:52:06.003Z,13.47
2017-10-03T07:54:33.630Z,13.45
2017-10-03T07:57:01.260Z,13.51
2017-10-03T07:59:28.858Z,13.39
2017-10-03T08:01:56.444Z,13.47
2017-10-03T08:04:24.194Z,13.51
2017-10-03T08:06:51.790Z,13.54
2017-10-03T08:09:19.429Z,13.66
2017-10-03T08:11:47.043Z,13.45
2017-10-03T08:14:14.928Z,13.56
2017-10-03T08:16:42.531Z,13.79
2017-10-03T08:19:10.568Z,13.96
2017-10-03T08:21:38.538Z,14.10
2017-10-03T08:24:06.134Z,14.32
2017-10-03T08:26:33.760Z,14.36
2017-10-03T08:29:01.359Z,14.50
2017-10-03T08:31:28.998Z,14.37
2017-10-03T08:33:56.620Z,14.10
2017-10-03T08:36:24.210Z,14.13
2017-10-03T08:38:52.178Z,14.22
2017-10-03T08:41:19.810Z,14.53
2017-10-03T08:43:47.649Z,14.48
2017-10-03T08:46:15.245Z,14.47
2017-10-03T08:48:42.859Z,14.37
2017-10-03T08:51:10.439Z,14.41
2017-10-03T08:53:38.040Z,14.27
2017-10-03T08:56:05.676Z,14.26
2017-10-03T08:58:33.281Z,14.52
2017-10-03T09:01:00.879Z,14.38
2017-10-03T09:03:28.522Z,14.42
2017-10-03T09:05:56.130Z,14.47
2017-10-03T09:08:23.708Z,14.78
2017-10-03T09:10:51.692Z,14.83
2017-10-03T09:13:19.273Z,14.79
2017-10-03T09:15:46.851Z,14.78
2017-10-03T09:18:14.482Z,14.60
2017-10-03T09:20:42.345Z,14.78
2017-10-03T09:23:09.972Z,14.80
2017-10-03T09:25:37.881Z,14.97
2017-10-03T09:28:05.486Z,15.07
2017-10-03T09:30:33.084Z,15.17
2017-10-03T09:33:00.749Z,15.12
2017-10-03T09:35:29.535Z,15.07
2017-10-03T09:37:57.287Z,15.33
2017-10-03T09:40:24.920Z,15.12
2017-10-03T09:42:52.552Z,15.22
2017-10-03T09:45:20.134Z,15.02
2017-10-03T09:47:48.057Z,15.12
2017-10-03T09:50:15.649Z,15.16
2017-10-03T09:52:43.288Z,15.31
2017-10-03T09:55:11.273Z,15.35
2017-10-03T09:57:38.877Z,15.60
2017-10-03T10:00:06.469Z,15.35
2017-10-03T10:02:34.116Z,15.38
2017-10-03T10:05:01.753Z,15.49
2017-10-03T10:07:29.372Z,15.52
2017-10-03T10:09:57.007Z,15.45
2017-10-03T10:12:24.610Z,15.09
2017-10-03T10:14:52.236Z,15.06
2017-10-03T10:17:19.851Z,14.87
2017-10-03T10:19:47.690Z,14.94
2017-10-03T10:22:15.268Z,14.83
2017-10-03T10:24:42.916Z,14.99
2017-10-03T10:27:10.575Z,15.46
2017-10-03T10:29:38.156Z,15.80
2017-10-03T10:32:05.808Z,15.93
2017-10-03T10:34:33.632Z,16.02
2017-10-03T10:37:01.245Z,15.83
2017-10-03T10:39:28.900Z,16.28
2017-10-03T10:41:56.511Z,16.52
2017-10-03T10:44:24.431Z,16.50
2017-10-03T10:46:52.064Z,16.68
2017-10-03T10:49:19.702Z,16.25
2017-10-03T10:51:47.287Z,15.60
2017-10-03T10:54:14.948Z,15.38
2017-10-03T10:56:42.596Z,15.13
2017-10-03T10:59:10.203Z,15.16
2017-10-03T11:01:37.844Z,15.31
2017-10-03T11:04:05.668Z,15.30
2017-10-03T11:06:33.305Z,15.31
2017-10-03T11:09:00.947Z,15.38
2017-10-03T11:11:28.569Z,15.04
2017-10-03T11:13:56.160Z,15.15
2017-10-03T11:16:23.825Z,15.34
2017-10-03T11:18:51.418Z,15.80
2017-10-03T11:21:19.003Z,16.23
2017-10-03T11:23:58.252Z,16.89
2017-10-03T11:26:25.870Z,17.09
2017-10-03T11:28:53.452Z,17.14
2017-10-03T11:31:21.073Z,17.25
2017-10-03T11:33:48.949Z,16.88
2017-10-03T11:36:16.530Z,16.86
2017-10-03T11:38:44.483Z,16.54
2017-10-03T11:41:13.049Z,16.55
2017-10-03T11:43:40.937Z,16.72
2017-10-03T11:46:08.569Z,16.72
2017-10-03T11:48:36.898Z,17.07
2017-10-03T11:51:04.846Z,17.84
2017-10-03T11:53:32.688Z,18.15
2017-10-03T11:56:00.326Z,18.24
2017-10-03T11:58:27.913Z,17.70
2017-10-03T12:00:55.540Z,17.73
2017-10-03T12:03:23.160Z,17.78
2017-10-03T12:05:50.735Z,18.59
2017-10-03T12:08:18.396Z,19.28
2017-10-03T12:10:46.052Z,20.79
2017-10-03T12:13:13.655Z,21.98
2017-10-03T12:15:41.289Z,21.26
2017-10-03T12:18:08.872Z,20.65
2017-10-03T12:20:36.471Z,19.78
2017-10-03T12:23:04.093Z,19.16
2017-10-03T12:25:31.688Z,18.80
2017-10-03T12:27:59.281Z,17.90
2017-10-03T12:30:26.915Z,17.48
2017-10-03T12:32:54.498Z,17.41
2017-10-03T12:35:22.127Z,17.81
2017-10-03T12:37:49.754Z,17.97
2017-10-03T12:40:17.344Z,17.98
2017-10-03T12:42:44.924Z,17.19
2017-10-03T12:45:12.550Z,17.02
2017-10-03T12:47:40.177Z,16.93
2017-10-03T12:50:07.801Z,16.80
2017-10-03T12:52:35.422Z,16.69
2017-10-03T12:55:03.064Z,16.64
2017-10-03T12:57:30.670Z,16.75
2017-10-03T12:59:58.389Z,16.74
2017-10-03T13:02:26.055Z,16.68
2017-10-03T13:04:54.908Z,16.77
2017-10-03T13:07:22.534Z,16.94
2017-10-03T13:09:50.116Z,17.08
2017-10-03T13:12:17.711Z,17.18
2017-10-03T13:14:45.335Z,17.20
2017-10-03T13:17:12.927Z,17.01
2017-10-03T13:19:40.523Z,16.94
2017-10-03T13:22:08.156Z,16.91
2017-10-03T13:24:35.750Z,16.73
2017-10-03T13:27:03.352Z,16.70
2017-10-03T13:29:30.997Z,16.64
2017-10-03T13:31:58.595Z,16.68
2017-10-03T13:34:26.210Z,16.65
2017-10-03T13:36:53.846Z,16.70
2017-10-03T13:39:21.442Z,16.54
2017-10-03T13:41:49.026Z,16.43
2017-10-03T13:44:16.651Z,16.38
2017-10-03T13:46:44.258Z,16.44
2017-10-03T13:49:12.163Z,16.64
2017-10-03T13:51:39.787Z,16.51
2017-10-03T13:54:07.694Z,16.49
2017-10-03T13:56:35.289Z,16.44
2017-10-03T13:59:02.913Z,16.26
2017-10-03T14:01:30.526Z,16.18
2017-10-03T14:03:58.107Z,16.13
2017-10-03T14:06:26.108Z,16.13
2017-10-03T14:08:53.710Z,16.13
2017-10-03T14:11:21.302Z,16.11
2017-10-03T14:13:48.944Z,16.15
2017-10-03T14:16:16.870Z,16.18
2017-10-03T14:18:44.441Z,16.23
2017-10-03T14:21:12.070Z,16.32
2017-10-03T14:23:39.649Z,16.38
2017-10-03T14:26:07.220Z,16.41
2017-10-03T14:28:35.289Z,16.49
2017-10-03T14:31:02.866Z,16.43
2017-10-03T14:33:30.498Z,16.37
2017-10-03T14:35:58.134Z,16.42
2017-10-03T14:38:25.718Z,16.30
2017-10-03T14:40:53.324Z,16.13
2017-10-03T14:43:20.952Z,16.06
2017-10-03T14:45:48.545Z,16.01
2017-10-03T14:48:16.486Z,15.99
2017-10-03T14:50:44.112Z,16.03
2017-10-03T14:53:11.704Z,16.09
2017-10-03T14:55:39.292Z,15.95
2017-10-03T14:58:07.237Z,16.04
2017-10-03T15:00:34.815Z,16.08
2017-10-03T15:03:02.409Z,16.13
2017-10-03T15:05:30.027Z,16.04
2017-10-03T15:07:58.827Z,16.10
2017-10-03T15:10:26.447Z,16.14
2017-10-03T15:12:54.442Z,16.16
2017-10-03T15:15:22.027Z,16.07
2017-10-03T15:17:49.617Z,15.99
2017-10-03T15:20:17.276Z,15.93
2017-10-03T15:22:44.887Z,16.00
2017-10-03T15:25:12.482Z,16.07
2017-10-03T15:27:40.105Z,16.03
2017-10-03T15:30:07.683Z,16.01
2017-10-03T15:32:35.548Z,15.99
2017-10-03T15:35:03.517Z,15.93
2017-10-03T15:37:31.100Z,15.87
2017-10-03T15:39:58.697Z,15.84
2017-10-03T15:42:26.359Z,15.86
2017-10-03T15:44:53.950Z,15.79
2017-10-03T15:47:21.774Z,15.70
2017-10-03T15:49:49.400Z,15.72
2017-10-03T15:52:16.975Z,15.73
2017-10-03T15:54:44.563Z,15.71
2017-10-03T15:57:12.207Z,15.70
2017-10-03T15:59:39.803Z,15.64
2017-10-03T16:02:07.384Z,15.60
2017-10-03T16:04:35.280Z,15.48
2017-10-03T16:07:02.868Z,15.03
2017-10-03T16:09:30.477Z,14.87
2017-10-03T16:11:58.120Z,14.86
2017-10-03T16:14:25.722Z,14.71
2017-10-03T16:16:53.309Z,14.53
2017-10-03T16:19:20.936Z,14.50
2017-10-03T16:21:48.516Z,14.41
2017-10-03T16:24:16.475Z,14.38
2017-10-03T16:26:44.092Z,14.40
2017-10-03T16:29:11.673Z,14.41
2017-10-03T16:31:39.502Z,14.42
2017-10-03T16:34:07.132Z,14.36
2017-10-03T16:36:34.724Z,14.38
2017-10-03T16:39:02.317Z,14.37
2017-10-03T16:41:29.944Z,14.25
2017-10-03T16:43:57.874Z,14.18
2017-10-03T16:46:25.501Z,14.18
2017-10-03T16:48:53.151Z,14.04
2017-10-03T16:51:20.727Z,14.06
2017-10-03T16:53:48.316Z,14.11
2017-10-03T16:56:15.947Z,14.15
2017-10-03T16:58:43.551Z,14.14
2017-10-03T17:01:11.412Z,14.14
2017-10-03T17:03:39.041Z,14.13
2017-10-03T17:06:06.661Z,14.00
2017-10-03T17:08:34.260Z,13.96
2017-10-03T17:11:01.903Z,13.82
2017-10-03T17:13:29.828Z,13.73
2017-10-03T17:15:57.411Z,13.69
2017-10-03T17:18:25.063Z,13.63
2017-10-03T17:20:52.668Z,13.49
2017-10-03T17:23:20.240Z,13.53
2017-10-03T17:25:47.859Z,13.55
2017-10-03T17:28:15.454Z,13.46
2017-10-03T17:30:43.032Z,13.40
2017-10-03T17:33:10.694Z,13.32
2017-10-03T17:35:38.290Z,13.34
2017-10-03T17:38:05.868Z,13.33
2017-10-03T17:40:33.489Z,13.41
2017-10-03T17:43:01.077Z,13.48
2017-10-03T17:45:28.664Z,13.54
2017-10-03T17:47:56.289Z,13.55
2017-10-03T17:50:23.882Z,13.50
2017-10-03T17:52:51.468Z,13.56
2017-10-03T17:55:19.116Z,13.55
2017-10-03T17:57:46.721Z,13.48
2017-10-03T18:00:14.298Z,13.53
2017-10-03T18:02:42.179Z,13.50
2017-10-03T18:05:09.843Z,13.58
2017-10-03T18:07:37.457Z,13.49
2017-10-03T18:10:05.476Z,13.46
2017-10-03T18:12:33.083Z,13.36
2017-10-03T18:15:00.711Z,13.30
2017-10-03T18:17:28.344Z,13.38
2017-10-03T18:19:55.928Z,13.54
2017-10-03T18:22:23.784Z,13.46
2017-10-03T18:24:51.752Z,13.46
2017-10-03T18:27:19.344Z,13.47
2017-10-03T18:29:46.946Z,13.42
2017-10-03T18:32:14.586Z,13.45
2017-10-03T18:34:42.176Z,13.47
2017-10-03T18:37:09.827Z,13.50
2017-10-03T18:39:37.832Z,13.48
2017-10-03T18:42:05.423Z,13.49
2017-10-03T18:44:33.006Z,13.45
2017-10-03T18:47:00.639Z,13.46
2017-10-03T18:49:28.231Z,13.47
2017-10-03T18:51:55.823Z,13.41
2017-10-03T18:54:23.450Z,13.48
2017-10-03T18:56:51.049Z,13.54
2017-10-03T18:59:18.633Z,13.40
2017-10-03T19:01:46.259Z,13.40
2017-10-03T19:04:14.157Z,13.46
2017-10-03T19:06:41.740Z,13.36
2017-10-03T19:09:09.375Z,13.36
2017-10-03T19:11:36.952Z,13.40
2017-10-03T19:14:04.530Z,13.37
2017-10-03T19:16:32.146Z,13.34
2017-10-03T19:18:59.740Z,13.35
2017-10-03T19:21:27.600Z,13.30
2017-10-03T19:23:55.217Z,13.18
2017-10-03T19:26:22.820Z,13.15
2017-10-03T19:28:50.400Z,13.16
2017-10-03T19:31:18.029Z,13.24
2017-10-03T19:33:45.615Z,13.30
2017-10-03T19:36:13.183Z,13.24
2017-10-03T19:38:40.807Z,13.21
2017-10-03T19:41:08.631Z,13.08
2017-10-03T19:43:36.268Z,13.07
2017-10-03T19:46:03.891Z,13.09
2017-10-03T19:48:31.496Z,12.97
2017-10-03T19:50:59.262Z,12.86
2017-10-03T19:53:26.880Z,12.85
2017-10-03T19:55:54.587Z,12.79
2017-10-03T19:58:22.171Z,12.79
2017-10-03T20:00:49.868Z,12.74
2017-10-03T20:03:17.466Z,12.78
2017-10-03T20:05:45.061Z,12.68
2017-10-03T20:08:12.709Z,12.67
2017-10-03T20:10:40.323Z,12.64
2017-10-03T20:13:07.912Z,12.62
2017-10-03T20:15:35.545Z,12.61
2017-10-03T20:18:03.134Z,12.51
2017-10-03T20:20:30.734Z,12.48
2017-10-03T20:22:58.343Z,12.53
2017-10-03T20:25:25.934Z,12.41
2017-10-03T20:27:53.885Z,12.37
2017-10-03T20:30:21.483Z,12.43
2017-10-03T20:32:49.417Z,12.42
2017-10-03T20:35:17.047Z,12.43
2017-10-03T20:37:44.623Z,12.44
2017-10-03T20:40:12.208Z,12.37
2017-10-03T20:42:39.829Z,12.39
2017-10-03T20:45:07.728Z,12.42
2017-10-03T20:47:35.316Z,12.41
2017-10-03T20:50:02.941Z,12.33
2017-10-03T20:52:30.557Z,12.30
2017-10-03T20:54:58.132Z,12.29
2017-10-03T20:57:25.755Z,12.25
2017-10-03T20:59:53.356Z,12.21
2017-10-03T21:02:20.932Z,12.20
2017-10-03T21:04:48.576Z,12.15
2017-10-03T21:07:16.500Z,12.16
2017-10-03T21:09:44.081Z,12.12
2017-10-03T21:12:11.705Z,12.11
2017-10-03T21:14:39.381Z,12.18
2017-10-03T21:17:06.967Z,12.14
2017-10-03T21:19:34.589Z,12.17
2017-10-03T21:22:02.468Z,12.10
2017-10-03T21:24:30.070Z,12.11
2017-10-03T21:26:58.008Z,12.16
2017-10-03T21:29:25.584Z,12.08
2017-10-03T21:31:53.179Z,12.01
2017-10-03T21:34:20.797Z,12.01
2017-10-03T21:36:48.381Z,11.97
2017-10-03T21:39:15.972Z,11.95
2017-10-03T21:41:55.394Z,11.91
2017-10-03T21:44:23.324Z,11.93
2017-10-03T21:46:50.936Z,12.05
2017-10-03T21:49:18.578Z,12.02
2017-10-03T21:51:46.404Z,12.01
2017-10-03T21:54:13.989Z,11.96
2017-10-03T21:56:41.607Z,11.99
2017-10-03T21:59:09.210Z,11.99
2017-10-03T22:01:36.792Z,11.91
2017-10-03T22:04:04.418Z,11.85
2017-10-03T22:06:32.008Z,11.95
2017-10-03T22:08:59.612Z,11.91
2017-10-03T22:11:27.311Z,11.92
2017-10-03T22:13:55.302Z,11.90
2017-10-03T22:16:22.943Z,11.89
2017-10-03T22:18:50.578Z,11.90
2017-10-03T22:21:18.161Z,11.92
2017-10-03T22:23:45.938Z,11.82
2017-10-03T22:26:13.937Z,11.82
2017-10-03T22:28:41.539Z,11.83
2017-10-03T22:31:09.135Z,11.91
2017-10-03T22:33:36.816Z,11.84
2017-10-03T22:36:04.767Z,11.92
2017-10-03T22:38:33.445Z,11.80
2017-10-03T22:41:01.076Z,11.75
2017-10-03T22:43:28.669Z,11.83
2017-10-03T22:45:56.249Z,11.87
2017-10-03T22:48:23.884Z,11.94
2017-10-03T22:50:51.475Z,11.93
2017-10-03T22:53:19.056Z,11.92
2017-10-03T22:55:46.715Z,11.91
2017-10-03T22:58:14.309Z,11.97
2017-10-03T23:00:41.896Z,11.93
2017-10-03T23:03:09.528Z,11.86
2017-10-03T23:05:37.440Z,11.85
2017-10-03T23:08:05.040Z,11.84
2017-10-03T23:10:32.701Z,11.88
2017-10-03T23:13:00.279Z,11.86
2017-10-03T23:15:27.877Z,11.84
2017-10-03T23:17:56.661Z,11.78
2017-10-03T23:20:24.255Z,11.86
2017-10-03T23:22:51.845Z,11.81
2017-10-03T23:25:19.756Z,11.84
2017-10-03T23:27:47.624Z,11.82
2017-10-03T23:30:15.488Z,11.83
2017-10-03T23:32:43.144Z,11.90
2017-10-03T23:35:10.735Z,11.88
2017-10-03T23:37:38.324Z,11.88
2017-10-03T23:40:05.964Z,11.90
2017-10-03T23:42:33.549Z,11.84
2017-10-03T23:45:01.132Z,11.87
2017-10-03T23:47:28.767Z,11.89
2017-10-03T23:49:56.692Z,11.94
2017-10-03T23:52:24.564Z,11.88
2017-10-03T23:54:52.207Z,11.88
2017-10-03T23:57:20.051Z,11.91
2017-10-03T23:59:47.867Z,11.86
